Time;durP1;ratioP1;P1;durP2;ratioP2;P2;SDS_P1;SDS_P2;PMS_P1;PMS_P2;Temp;Humidity;BMP_temperature;BMP_pressure;BME280_temperature;BME280_humidity;BME280_pressure;Samples;Min_cycle;Max_cycle;Signal;HPM_P1;HPM_P2
2024/02/28 00:01:49;;;;;;;20.40;13.50;;;8.00;81.80;;;;;;4820235;29;20094;-80
2024/02/28 00:04:15;;;;;;;21.58;14.23;;;8.00;81.70;;;;;;4839628;29;20121;-96
2024/02/28 00:06:42;;;;;;;22.48;14.32;;;8.00;81.80;;;;;;4837446;29;20406;-87
2024/02/28 00:09:07;;;;;;;20.92;13.32;;;7.90;81.70;;;;;;4826835;29;20046;-80
2024/02/28 00:11:33;;;;;;;20.52;13.93;;;7.90;81.70;;;;;;4840311;29;20486;-79
2024/02/28 00:14:02;;;;;;;20.67;13.75;;;7.90;81.70;;;;;;4818892;29;20546;-94
2024/02/28 00:16:28;;;;;;;21.58;13.10;;;7.90;81.70;;;;;;4832667;29;20018;-79
2024/02/28 00:18:55;;;;;;;18.63;12.95;;;7.90;81.70;;;;;;4824032;29;20074;-87
2024/02/28 00:21:20;;;;;;;20.33;13.02;;;7.90;81.80;;;;;;4828190;29;20040;-95
2024/02/28 00:23:46;;;;;;;21.00;13.48;;;7.90;81.80;;;;;;4840622;29;20427;-96
2024/02/28 00:26:12;;;;;;;21.10;13.90;;;7.90;81.80;;;;;;4826514;29;20026;-96
2024/02/28 00:28:40;;;;;;;18.52;13.48;;;7.90;81.80;;;;;;4820305;29;20029;-95
2024/02/28 00:31:06;;;;;;;18.48;12.55;;;7.90;81.80;;;;;;4831242;29;20063;-87
2024/02/28 00:33:32;;;;;;;19.15;13.65;;;7.80;81.70;;;;;;4823728;29;20038;-96
2024/02/28 00:35:58;;;;;;;20.23;13.52;;;7.80;81.70;;;;;;4828097;29;20033;-82
2024/02/28 00:38:27;;;;;;;20.90;13.82;;;7.90;81.80;;;;;;4824505;29;20017;-86
2024/02/28 00:40:53;;;;;;;20.90;13.68;;;7.80;81.80;;;;;;4827913;29;20034;-81
2024/02/28 00:43:19;;;;;;;19.83;13.55;;;7.80;81.80;;;;;;4825465;29;20034;-95
2024/02/28 00:45:44;;;;;;;19.63;13.13;;;7.80;81.70;;;;;;4840644;29;20174;-77
2024/02/28 00:48:10;;;;;;;19.73;12.65;;;7.80;81.80;;;;;;4826803;29;20041;-82
2024/02/28 00:50:37;;;;;;;20.92;14.50;;;7.80;81.80;;;;;;4842841;29;20537;-87
2024/02/28 00:53:03;;;;;;;20.27;13.05;;;7.80;81.80;;;;;;4842231;29;20050;-82
2024/02/28 00:55:29;;;;;;;20.15;13.45;;;7.70;81.70;;;;;;4832278;29;20034;-96
2024/02/28 00:57:56;;;;;;;20.83;13.88;;;7.70;81.70;;;;;;4832264;29;20025;-87
2024/02/28 01:00:21;;;;;;;20.77;13.88;;;7.70;81.80;;;;;;4827204;29;20025;-95
2024/02/28 01:02:47;;;;;;;19.65;13.57;;;7.70;81.80;;;;;;4836150;29;20093;-94
2024/02/28 01:05:13;;;;;;;20.38;14.23;;;7.70;81.80;;;;;;4839958;29;20063;-82
2024/02/28 01:07:39;;;;;;;20.58;13.65;;;7.70;81.80;;;;;;4843191;29;20099;-96
2024/02/28 01:10:06;;;;;;;20.25;13.07;;;7.70;81.80;;;;;;4829193;29;20052;-87
2024/02/28 01:12:32;;;;;;;19.58;13.55;;;7.70;81.80;;;;;;4820565;29;20033;-95
2024/02/28 01:14:57;;;;;;;18.80;12.85;;;7.70;81.80;;;;;;4829929;29;20044;-96
2024/02/28 01:17:23;;;;;;;20.70;13.93;;;7.70;81.80;;;;;;4851813;29;20033;-96
2024/02/28 01:19:52;;;;;;;20.85;13.73;;;7.70;81.80;;;;;;4840731;29;20065;-95
2024/02/28 01:22:18;;;;;;;18.98;13.55;;;7.60;81.80;;;;;;4847847;29;20129;-81
2024/02/28 01:24:44;;;;;;;18.50;12.85;;;7.60;81.80;;;;;;4839922;29;20046;-84
2024/02/28 01:27:10;;;;;;;19.60;13.52;;;7.60;81.80;;;;;;4855030;29;20498;-79
2024/02/28 01:29:36;;;;;;;20.48;13.63;;;7.60;81.80;;;;;;4827281;29;20037;-81
2024/02/28 01:32:02;;;;;;;19.35;13.27;;;7.60;81.90;;;;;;4831244;29;20069;-79
2024/02/28 01:34:28;;;;;;;18.85;12.90;;;7.60;81.90;;;;;;4836774;29;20029;-82
2024/02/28 01:36:54;;;;;;;18.75;12.88;;;7.60;81.90;;;;;;4846120;29;20045;-82
2024/02/28 01:39:19;;;;;;;19.25;12.90;;;7.60;81.90;;;;;;4842786;29;20052;-79
2024/02/28 01:41:53;;;;;;;18.92;13.32;;;7.60;81.90;;;;;;4828260;29;20101;-87
2024/02/28 01:44:19;;;;;;;19.33;13.45;;;7.60;81.90;;;;;;4835600;29;20036;-96
2024/02/28 01:46:46;;;;;;;19.52;13.30;;;7.60;81.90;;;;;;4861542;29;20061;-81
2024/02/28 01:49:12;;;;;;;19.30;13.57;;;7.60;81.90;;;;;;4838494;29;20021;-96
2024/02/28 01:51:39;;;;;;;20.83;13.68;;;7.60;81.90;;;;;;4828657;29;20116;-87
2024/02/28 01:54:06;;;;;;;18.90;12.90;;;7.60;81.90;;;;;;4842576;29;20029;-95
2024/02/28 01:56:32;;;;;;;18.50;12.88;;;7.50;81.90;;;;;;4843904;29;20078;-82
2024/02/28 01:58:59;;;;;;;20.50;14.23;;;7.50;81.90;;;;;;4824237;29;20030;-95
2024/02/28 02:01:25;;;;;;;20.38;13.73;;;7.50;81.90;;;;;;4852542;29;20038;-81
2024/02/28 02:03:53;;;;;;;19.58;13.00;;;7.50;81.90;;;;;;4827987;29;20491;-96
2024/02/28 02:06:20;;;;;;;19.88;13.40;;;7.50;81.90;;;;;;4837273;29;20042;-87
2024/02/28 02:08:47;;;;;;;19.70;13.55;;;7.50;81.90;;;;;;4826969;29;20055;-79
2024/02/28 02:11:18;;;;;;;19.02;12.93;;;7.50;81.90;;;;;;4837223;29;20056;-82
2024/02/28 02:13:51;;;;;;;20.17;13.48;;;7.50;81.90;;;;;;4826598;29;20602;-79
2024/02/28 02:16:22;;;;;;;19.70;13.30;;;7.50;81.90;;;;;;4839210;29;20026;-82
2024/02/28 02:18:49;;;;;;;19.15;14.23;;;7.40;81.90;;;;;;4840052;29;20022;-78
2024/02/28 02:21:22;;;;;;;21.05;14.45;;;7.50;81.90;;;;;;4830663;29;20538;-95
2024/02/28 02:23:48;;;;;;;20.88;14.10;;;7.50;81.90;;;;;;4828823;29;20376;-78
2024/02/28 02:26:14;;;;;;;20.42;14.20;;;7.50;81.90;;;;;;4834723;29;20065;-80
2024/02/28 02:28:46;;;;;;;20.50;13.85;;;7.40;81.90;;;;;;4828642;29;20110;-83
2024/02/28 02:31:13;;;;;;;19.52;13.82;;;7.40;81.90;;;;;;4819762;29;20025;-78
2024/02/28 02:33:39;;;;;;;19.92;14.18;;;7.40;81.90;;;;;;4823845;29;20498;-86
2024/02/28 02:36:05;;;;;;;20.45;14.50;;;7.40;81.90;;;;;;4836711;29;20478;-80
2024/02/28 02:38:30;;;;;;;22.10;14.55;;;7.40;82.00;;;;;;4828523;29;20033;-87
2024/02/28 02:40:56;;;;;;;19.77;13.48;;;7.40;81.90;;;;;;4832526;29;20502;-86
2024/02/28 02:43:22;;;;;;;20.45;13.75;;;7.40;82.00;;;;;;4832741;29;20053;-86
2024/02/28 02:45:48;;;;;;;19.85;13.95;;;7.40;82.00;;;;;;4836490;29;20108;-80
2024/02/28 02:48:16;;;;;;;21.30;14.23;;;7.40;82.00;;;;;;4827260;29;20064;-80
2024/02/28 02:50:42;;;;;;;20.38;14.18;;;7.40;82.00;;;;;;4837567;29;20037;-86
2024/02/28 02:53:10;;;;;;;22.67;15.18;;;7.40;82.00;;;;;;4831710;29;20053;-79
2024/02/28 02:55:36;;;;;;;21.95;14.60;;;7.40;82.00;;;;;;4825068;29;20034;-93
2024/02/28 02:58:02;;;;;;;21.35;14.45;;;7.40;82.00;;;;;;4824040;29;20034;-86
2024/02/28 03:00:28;;;;;;;20.70;14.32;;;7.40;82.00;;;;;;4834689;29;20036;-86
2024/02/28 03:02:54;;;;;;;20.00;13.82;;;7.40;82.00;;;;;;4842439;29;20120;-86
2024/02/28 03:05:20;;;;;;;20.98;14.52;;;7.40;82.00;;;;;;4826800;29;20057;-81
2024/02/28 03:07:46;;;;;;;20.75;14.35;;;7.40;82.00;;;;;;4836865;29;20085;-96
2024/02/28 03:10:12;;;;;;;18.75;13.52;;;7.30;82.00;;;;;;4840503;29;20112;-81
2024/02/28 03:12:37;;;;;;;20.77;14.65;;;7.30;81.90;;;;;;4826469;29;20029;-81
2024/02/28 03:15:05;;;;;;;18.20;13.82;;;7.30;82.00;;;;;;4833568;29;20045;-86
2024/02/28 03:17:31;;;;;;;18.20;13.20;;;7.30;82.00;;;;;;4838601;29;20120;-78
2024/02/28 03:19:58;;;;;;;20.33;13.45;;;7.30;82.00;;;;;;4841935;29;20038;-86
2024/02/28 03:22:25;;;;;;;20.35;14.02;;;7.30;82.00;;;;;;4834507;29;20049;-86
2024/02/28 03:24:52;;;;;;;18.73;13.45;;;7.30;82.00;;;;;;4822691;29;20102;-86
2024/02/28 03:27:19;;;;;;;19.17;13.65;;;7.30;82.00;;;;;;4825312;29;20136;-85
2024/02/28 03:29:44;;;;;;;19.58;13.73;;;7.30;82.00;;;;;;4838379;29;20377;-95
2024/02/28 03:32:10;;;;;;;19.25;13.63;;;7.30;82.00;;;;;;4839117;29;20030;-80
2024/02/28 03:34:37;;;;;;;19.80;13.80;;;7.30;82.00;;;;;;4829113;29;20033;-94
2024/02/28 03:37:03;;;;;;;20.05;13.85;;;7.30;82.20;;;;;;4831079;29;20026;-78
2024/02/28 03:39:29;;;;;;;17.52;12.95;;;7.30;82.00;;;;;;4840089;29;20029;-79
2024/02/28 03:41:54;;;;;;;17.80;13.20;;;7.30;82.00;;;;;;4827093;29;20036;-79
2024/02/28 03:44:21;;;;;;;19.38;13.73;;;7.30;82.00;;;;;;4843097;29;20097;-80
2024/02/28 03:46:47;;;;;;;18.02;13.48;;;7.30;82.00;;;;;;4822770;29;20579;-81
2024/02/28 03:49:12;;;;;;;20.15;13.85;;;7.30;82.00;;;;;;4819334;29;20436;-81
2024/02/28 03:51:41;;;;;;;18.15;13.23;;;7.30;82.70;;;;;;4838826;29;20052;-94
2024/02/28 03:54:08;;;;;;;20.52;13.60;;;7.30;82.10;;;;;;4841852;29;20034;-81
2024/02/28 03:56:35;;;;;;;18.88;13.30;;;7.20;82.00;;;;;;4824783;29;20033;-86
2024/02/28 03:59:01;;;;;;;18.92;13.70;;;7.20;82.00;;;;;;4837140;29;20026;-96
2024/02/28 04:01:26;;;;;;;19.85;13.82;;;7.30;82.10;;;;;;4817390;29;20037;-79
2024/02/28 04:03:53;;;;;;;19.15;14.43;;;7.20;82.00;;;;;;4840916;29;20044;-78
2024/02/28 04:06:21;;;;;;;18.15;13.38;;;7.20;82.10;;;;;;4823672;29;20072;-78
2024/02/28 04:08:47;;;;;;;18.60;13.45;;;7.20;82.10;;;;;;4841471;29;20034;-95
2024/02/28 04:11:13;;;;;;;20.13;14.00;;;7.20;82.10;;;;;;4835415;29;20046;-79
2024/02/28 04:13:41;;;;;;;18.65;13.45;;;7.20;82.00;;;;;;4821323;29;20424;-95
2024/02/28 04:16:10;;;;;;;17.48;12.82;;;7.20;82.00;;;;;;4827992;29;20033;-92
2024/02/28 04:18:37;;;;;;;18.75;13.27;;;7.20;82.10;;;;;;4842336;29;20113;-94
2024/02/28 04:21:03;;;;;;;17.67;12.88;;;7.20;82.10;;;;;;4836625;29;20072;-82
2024/02/28 04:23:28;;;;;;;18.05;13.05;;;7.20;82.10;;;;;;4825420;29;20050;-87
2024/02/28 04:25:54;;;;;;;18.55;13.95;;;7.20;82.10;;;;;;4841269;29;20064;-81
2024/02/28 04:28:20;;;;;;;17.70;12.88;;;7.20;82.10;;;;;;4852312;29;20093;-79
2024/02/28 04:30:46;;;;;;;17.38;12.45;;;7.10;82.00;;;;;;4841796;29;20034;-81
2024/02/28 04:33:12;;;;;;;17.08;12.05;;;7.10;82.00;;;;;;4836801;29;20504;-81
2024/02/28 04:35:37;;;;;;;17.77;13.15;;;7.10;82.00;;;;;;4823323;29;20474;-81
2024/02/28 04:38:04;;;;;;;16.33;12.50;;;7.20;82.10;;;;;;4848316;29;20108;-86
2024/02/28 04:40:30;;;;;;;16.85;12.63;;;7.20;82.10;;;;;;4839563;29;20183;-79
2024/02/28 04:42:55;;;;;;;17.50;12.60;;;7.10;82.00;;;;;;4847537;29;20128;-81
2024/02/28 04:45:22;;;;;;;15.98;12.35;;;7.10;82.10;;;;;;4839396;29;20025;-81
2024/02/28 04:47:48;;;;;;;17.17;12.80;;;7.10;82.10;;;;;;4837339;29;20380;-79
2024/02/28 04:50:13;;;;;;;17.40;13.30;;;7.10;82.10;;;;;;4830340;29;20032;-79
2024/02/28 04:52:39;;;;;;;17.60;12.90;;;7.10;82.10;;;;;;4827301;29;20101;-81
2024/02/28 04:55:05;;;;;;;18.55;12.95;;;7.10;82.10;;;;;;4838755;29;20360;-79
2024/02/28 04:57:31;;;;;;;16.83;12.35;;;7.10;82.10;;;;;;4816247;29;20510;-81
2024/02/28 04:59:58;;;;;;;15.25;11.43;;;7.10;82.10;;;;;;4828611;29;20113;-95
2024/02/28 05:02:25;;;;;;;16.92;12.00;;;7.10;82.10;;;;;;4835557;29;20022;-79
2024/02/28 05:04:51;;;;;;;16.73;12.30;;;7.10;82.10;;;;;;4845916;29;20039;-86
2024/02/28 05:07:17;;;;;;;16.13;11.85;;;7.10;82.10;;;;;;4840473;29;20041;-79
2024/02/28 05:09:44;;;;;;;16.52;12.85;;;7.00;82.00;;;;;;4829908;29;20029;-80
2024/02/28 05:12:12;;;;;;;18.75;13.48;;;7.00;82.00;;;;;;4826010;29;20491;-95
2024/02/28 05:14:39;;;;;;;17.02;12.73;;;7.00;82.00;;;;;;4843718;29;20118;-86
2024/02/28 05:17:05;;;;;;;17.33;12.75;;;7.00;82.00;;;;;;4843965;29;20030;-79
2024/02/28 05:19:31;;;;;;;15.88;12.65;;;7.00;82.00;;;;;;4820762;29;20030;-79
2024/02/28 05:21:58;;;;;;;17.67;13.23;;;7.00;82.10;;;;;;4842599;29;20093;-79
2024/02/28 05:24:25;;;;;;;15.95;11.85;;;7.00;82.00;;;;;;4825136;29;20033;-86
2024/02/28 05:26:51;;;;;;;16.60;13.00;;;7.00;82.10;;;;;;4827955;29;20033;-87
2024/02/28 05:29:17;;;;;;;16.40;12.45;;;7.00;82.10;;;;;;4835482;29;20085;-87
2024/02/28 05:31:42;;;;;;;17.15;13.05;;;7.00;82.10;;;;;;4825701;29;20028;-87
2024/02/28 05:34:11;;;;;;;17.70;12.68;;;7.00;82.10;;;;;;4826036;29;20034;-79
2024/02/28 05:36:36;;;;;;;16.00;12.63;;;7.00;82.10;;;;;;4839702;29;20033;-78
2024/02/28 05:39:05;;;;;;;17.27;12.75;;;7.00;82.10;;;;;;4841748;29;20033;-79
2024/02/28 05:41:31;;;;;;;17.13;13.00;;;7.00;82.00;;;;;;4838058;29;20034;-86
2024/02/28 05:43:57;;;;;;;16.48;12.35;;;6.90;82.00;;;;;;4827518;29;20081;-81
2024/02/28 05:46:22;;;;;;;17.05;12.57;;;6.90;82.00;;;;;;4838055;29;20109;-87
2024/02/28 05:48:50;;;;;;;16.20;12.20;;;6.90;82.00;;;;;;4825584;29;20050;-89
2024/02/28 05:51:16;;;;;;;16.98;12.98;;;6.90;82.00;;;;;;4833513;29;20034;-78
2024/02/28 05:53:43;;;;;;;15.45;11.57;;;6.90;82.00;;;;;;4836470;29;20076;-92
2024/02/28 05:56:16;;;;;;;15.98;12.88;;;6.90;82.00;;;;;;4847623;29;20082;-79
2024/02/28 05:58:46;;;;;;;16.98;12.50;;;6.90;82.00;;;;;;4821038;29;20094;-79
2024/02/28 06:01:15;;;;;;;15.75;12.30;;;6.90;82.10;;;;;;4834735;29;20125;-81
2024/02/28 06:03:41;;;;;;;15.15;12.07;;;6.90;82.10;;;;;;4836428;29;20117;-80
2024/02/28 06:06:08;;;;;;;15.68;12.52;;;6.90;82.10;;;;;;4824378;29;20042;-79
2024/02/28 06:08:35;;;;;;;16.63;12.60;;;6.90;82.10;;;;;;4827054;29;20033;-81
2024/02/28 06:11:01;;;;;;;15.23;12.15;;;6.90;82.10;;;;;;4830287;29;20050;-79
2024/02/28 06:13:29;;;;;;;15.32;12.38;;;6.90;82.10;;;;;;4834994;29;20030;-95
2024/02/28 06:15:56;;;;;;;14.98;11.85;;;6.80;82.00;;;;;;4829374;29;20128;-81
2024/02/28 06:18:26;;;;;;;15.02;11.63;;;6.80;82.00;;;;;;4837229;29;20025;-79
2024/02/28 06:20:56;;;;;;;14.50;11.50;;;6.80;82.10;;;;;;4838023;29;20055;-79
2024/02/28 06:23:23;;;;;;;15.73;12.13;;;6.80;82.00;;;;;;4824804;29;20173;-83
2024/02/28 06:25:49;;;;;;;15.35;11.88;;;6.80;82.10;;;;;;4824118;29;20034;-84
2024/02/28 06:28:15;;;;;;;14.15;11.20;;;6.80;82.10;;;;;;4838054;29;20102;-91
2024/02/28 06:30:48;;;;;;;15.35;12.50;;;6.80;82.00;;;;;;4827125;29;20041;-79
2024/02/28 06:33:17;;;;;;;14.23;11.48;;;6.80;82.10;;;;;;4834410;29;20153;-95
2024/02/28 06:35:43;;;;;;;13.98;11.57;;;6.80;82.10;;;;;;4827959;29;20018;-88
2024/02/28 06:38:08;;;;;;;14.07;11.68;;;6.70;82.00;;;;;;4818442;29;20121;-90
2024/02/28 06:40:35;;;;;;;14.07;11.57;;;6.70;82.00;;;;;;4835725;29;20026;-96
2024/02/28 06:43:01;;;;;;;14.02;12.32;;;6.70;82.00;;;;;;4824674;29;20116;-82
2024/02/28 06:45:27;;;;;;;13.02;10.75;;;6.70;82.00;;;;;;4827446;29;20114;-81
2024/02/28 06:47:53;;;;;;;14.40;11.43;;;6.70;82.00;;;;;;4857903;29;20040;-81
2024/02/28 06:50:18;;;;;;;13.90;11.38;;;6.70;82.00;;;;;;4842782;29;20557;-94
2024/02/28 06:52:44;;;;;;;14.15;10.93;;;6.70;82.00;;;;;;4833731;29;20034;-87
2024/02/28 06:55:13;;;;;;;14.02;11.60;;;6.70;82.00;;;;;;4817058;29;20487;-93
2024/02/28 06:57:41;;;;;;;13.20;11.20;;;6.70;82.00;;;;;;4823337;29;20018;-80
2024/02/28 07:00:11;;;;;;;13.35;11.25;;;6.70;82.00;;;;;;4822744;29;20029;-79
2024/02/28 07:02:37;;;;;;;13.48;11.05;;;6.60;82.00;;;;;;4821763;29;20124;-79
2024/02/28 07:05:04;;;;;;;13.65;11.15;;;6.60;82.00;;;;;;4829966;29;20034;-78
2024/02/28 07:07:31;;;;;;;13.40;11.30;;;6.60;82.00;;;;;;4834832;29;20050;-80
2024/02/28 07:09:58;;;;;;;13.73;11.40;;;6.60;82.00;;;;;;4839253;29;20053;-79
2024/02/28 07:12:24;;;;;;;14.68;11.10;;;6.60;82.00;;;;;;4855255;29;20098;-90
2024/02/28 07:14:50;;;;;;;13.38;10.90;;;6.60;82.00;;;;;;4825258;29;20399;-91
2024/02/28 07:17:16;;;;;;;13.88;11.43;;;6.50;81.90;;;;;;4841809;29;20537;-92
2024/02/28 07:19:42;;;;;;;13.73;11.48;;;6.60;81.90;;;;;;4832818;29;20407;-85
2024/02/28 07:22:08;;;;;;;13.93;11.32;;;6.60;82.00;;;;;;4824718;29;20029;-84
2024/02/28 07:24:34;;;;;;;13.60;11.55;;;6.60;82.00;;;;;;4828099;29;20125;-85
2024/02/28 07:26:59;;;;;;;13.48;11.18;;;6.60;82.00;;;;;;4828885;29;20032;-90
2024/02/28 07:29:25;;;;;;;14.27;12.18;;;6.60;82.00;;;;;;4840521;29;20026;-80
2024/02/28 07:31:51;;;;;;;15.15;12.15;;;6.60;82.00;;;;;;4830636;29;20028;-80
2024/02/28 07:34:17;;;;;;;14.13;11.70;;;6.50;81.90;;;;;;4827927;29;20029;-84
2024/02/28 07:36:43;;;;;;;13.98;11.50;;;6.60;82.00;;;;;;4829470;29;20033;-83
2024/02/28 07:39:13;;;;;;;14.35;12.07;;;6.50;81.90;;;;;;4825787;29;20478;-78
2024/02/28 07:41:42;;;;;;;14.23;11.63;;;6.60;82.00;;;;;;4833788;29;20029;-78
2024/02/28 07:44:08;;;;;;;15.52;11.85;;;6.50;81.90;;;;;;4840487;29;20041;-83
2024/02/28 07:46:35;;;;;;;14.20;11.88;;;6.60;82.00;;;;;;4836039;29;20410;-88
2024/02/28 07:49:01;;;;;;;14.02;11.82;;;6.50;81.90;;;;;;4819756;29;20030;-83
2024/02/28 07:51:28;;;;;;;16.20;13.68;;;6.50;82.00;;;;;;4835764;29;20057;-79
2024/02/28 07:53:54;;;;;;;15.25;12.43;;;6.50;82.00;;;;;;4835085;29;20057;-80
2024/02/28 07:56:21;;;;;;;14.98;12.32;;;6.60;82.10;;;;;;4832661;29;20064;-88
2024/02/28 07:58:47;;;;;;;15.85;13.43;;;6.60;82.10;;;;;;4824139;29;20037;-90
2024/02/28 08:01:13;;;;;;;15.05;11.77;;;6.60;82.00;;;;;;4839191;29;20057;-90
2024/02/28 08:03:41;;;;;;;16.60;13.43;;;6.60;82.70;;;;;;4836661;29;20034;-79
2024/02/28 08:06:11;;;;;;;15.90;13.10;;;6.60;82.00;;;;;;4846104;29;20044;-78
2024/02/28 08:08:37;;;;;;;15.48;13.27;;;6.60;82.10;;;;;;4828091;29;20022;-92
2024/02/28 08:11:03;;;;;;;16.02;12.93;;;6.60;82.10;;;;;;4833027;29;20513;-92
2024/02/28 08:13:48;;;;;;;15.63;12.98;;;6.60;82.10;;;;;;4820052;29;20054;-80
2024/02/28 08:16:14;;;;;;;16.75;13.63;;;6.60;82.10;;;;;;4816742;29;20034;-85
2024/02/28 08:18:40;;;;;;;16.05;13.20;;;6.60;82.10;;;;;;4805750;29;20122;-84
2024/02/28 08:21:06;;;;;;;17.83;14.40;;;6.60;82.70;;;;;;4809057;29;20041;-84
2024/02/28 08:23:34;;;;;;;16.02;13.20;;;6.60;82.00;;;;;;4817059;29;20034;-80
2024/02/28 08:26:00;;;;;;;18.52;14.35;;;6.60;82.10;;;;;;4805222;29;20038;-78
2024/02/28 08:28:27;;;;;;;16.52;13.07;;;6.60;82.10;;;;;;4835844;29;20120;-94
2024/02/28 08:30:53;;;;;;;18.17;14.43;;;6.60;82.10;;;;;;4821224;29;20026;-79
2024/02/28 08:33:18;;;;;;;17.13;13.55;;;6.60;82.00;;;;;;4808278;29;20507;-78
2024/02/28 08:35:44;;;;;;;19.00;14.43;;;6.70;82.10;;;;;;4824904;29;20034;-85
2024/02/28 08:38:10;;;;;;;17.63;14.25;;;6.70;82.10;;;;;;4804590;29;20046;-83
2024/02/28 08:40:36;;;;;;;17.48;13.63;;;6.70;82.10;;;;;;4805070;29;20078;-80
2024/02/28 08:43:01;;;;;;;19.15;14.85;;;6.70;82.10;;;;;;4829039;29;20042;-85
2024/02/28 08:45:27;;;;;;;18.63;14.25;;;6.70;82.40;;;;;;4805744;29;20047;-93
2024/02/28 08:47:57;;;;;;;17.73;13.73;;;6.70;82.10;;;;;;4824662;29;20038;-93
2024/02/28 08:50:25;;;;;;;18.83;14.55;;;6.70;82.10;;;;;;4829080;29;20054;-80
2024/02/28 08:52:50;;;;;;;17.65;14.10;;;6.70;82.10;;;;;;4827420;29;20046;-85
2024/02/28 08:55:18;;;;;;;18.23;14.27;;;6.80;82.10;;;;;;4827661;29;20044;-78
2024/02/28 08:57:46;;;;;;;16.80;13.40;;;6.80;82.20;;;;;;4830207;29;20025;-86
2024/02/28 09:00:12;;;;;;;17.40;13.75;;;6.80;82.10;;;;;;4830537;29;20501;-79
2024/02/28 09:02:38;;;;;;;18.40;14.63;;;6.80;82.10;;;;;;4830774;29;20025;-92
2024/02/28 09:05:04;;;;;;;17.65;14.13;;;6.80;82.10;;;;;;4839470;29;20117;-87
2024/02/28 09:07:31;;;;;;;18.08;13.90;;;6.80;82.10;;;;;;4830256;29;20083;-79
2024/02/28 09:09:57;;;;;;;19.15;14.75;;;6.80;82.10;;;;;;4841454;29;20065;-94
2024/02/28 09:12:23;;;;;;;17.80;12.65;;;6.80;82.10;;;;;;4841504;29;20140;-94
2024/02/28 09:14:54;;;;;;;18.05;13.95;;;6.90;82.10;;;;;;4861900;29;20037;-81
2024/02/28 09:17:20;;;;;;;18.77;13.98;;;6.90;82.10;;;;;;4826534;29;20489;-79
2024/02/28 09:19:46;;;;;;;17.15;13.88;;;6.90;82.10;;;;;;4831410;29;20034;-81
2024/02/28 09:22:11;;;;;;;19.42;14.48;;;6.90;82.10;;;;;;4837390;29;20073;-80
2024/02/28 09:24:37;;;;;;;18.17;13.15;;;7.00;82.10;;;;;;4832350;29;20070;-81
2024/02/28 09:27:03;;;;;;;17.42;13.57;;;7.00;82.10;;;;;;4826599;29;20038;-87
2024/02/28 09:29:29;;;;;;;17.60;14.02;;;7.00;82.10;;;;;;4832346;29;20021;-81
2024/02/28 09:31:55;;;;;;;16.63;13.82;;;7.10;82.10;;;;;;4822895;29;20030;-86
2024/02/28 09:34:20;;;;;;;17.65;14.07;;;7.00;82.10;;;;;;4827872;29;20042;-93
2024/02/28 09:36:49;;;;;;;19.35;14.20;;;7.10;82.10;;;;;;4835578;29;20636;-81
2024/02/28 09:39:15;;;;;;;16.38;13.25;;;7.10;82.10;;;;;;4825890;29;20033;-86
2024/02/28 09:41:41;;;;;;;16.30;13.18;;;7.20;82.10;;;;;;4834462;29;20085;-86
2024/02/28 09:44:07;;;;;;;18.67;14.02;;;7.20;82.10;;;;;;4835609;29;20034;-93
2024/02/28 09:46:34;;;;;;;16.67;13.43;;;7.20;82.10;;;;;;4828064;29;20503;-94
2024/02/28 09:49:07;;;;;;;18.65;13.80;;;7.20;82.10;;;;;;4845205;29;20081;-94
2024/02/28 09:51:35;;;;;;;16.58;13.73;;;7.30;82.10;;;;;;4836198;29;20026;-87
2024/02/28 09:54:05;;;;;;;16.45;12.95;;;7.30;82.10;;;;;;4842631;29;20124;-81
2024/02/28 09:56:31;;;;;;;16.48;13.63;;;7.30;82.10;;;;;;4836761;29;20088;-87
2024/02/28 09:58:59;;;;;;;17.02;13.02;;;7.30;82.10;;;;;;4827335;29;20052;-88
2024/02/28 10:01:31;;;;;;;17.67;13.25;;;7.30;82.10;;;;;;4840174;29;20479;-81
2024/02/28 10:04:00;;;;;;;16.50;13.00;;;7.40;82.10;;;;;;4826366;29;20051;-81
2024/02/28 10:06:26;;;;;;;17.27;13.38;;;7.40;82.10;;;;;;4834692;29;20391;-80
2024/02/28 10:08:52;;;;;;;17.23;13.50;;;7.40;82.00;;;;;;4828932;29;20030;-81
2024/02/28 10:11:22;;;;;;;18.50;13.77;;;7.40;82.10;;;;;;4825943;29;20054;-86
2024/02/28 10:13:49;;;;;;;17.38;13.75;;;7.40;82.10;;;;;;4845409;29;20052;-81
2024/02/28 10:16:15;;;;;;;16.00;13.35;;;7.40;82.00;;;;;;4838000;29;20513;-86
2024/02/28 10:18:45;;;;;;;16.83;13.63;;;7.50;82.70;;;;;;4828496;29;20502;-80
2024/02/28 10:21:17;;;;;;;16.95;13.57;;;7.60;82.10;;;;;;4848859;29;20030;-80
2024/02/28 10:23:46;;;;;;;18.08;13.80;;;7.50;82.00;;;;;;4840974;29;20120;-78
2024/02/28 10:26:12;;;;;;;18.45;14.02;;;7.60;82.10;;;;;;4835791;29;20374;-94
2024/02/28 10:28:39;;;;;;;17.40;13.25;;;7.50;82.00;;;;;;4826774;29;20029;-85
2024/02/28 10:31:08;;;;;;;17.33;13.40;;;7.60;82.10;;;;;;4836206;29;20503;-92
2024/02/28 10:33:35;;;;;;;18.17;13.75;;;7.60;82.10;;;;;;4812591;29;20048;-84
2024/02/28 10:36:04;;;;;;;18.52;14.25;;;7.70;82.10;;;;;;4824878;29;20109;-92
2024/02/28 10:38:33;;;;;;;18.25;14.40;;;7.70;82.10;;;;;;4836019;29;20041;-85
2024/02/28 10:41:01;;;;;;;16.23;12.93;;;7.70;82.00;;;;;;4825709;29;20040;-79
2024/02/28 10:43:31;;;;;;;17.20;13.38;;;7.70;82.00;;;;;;4816537;29;20518;-85
2024/02/28 10:46:01;;;;;;;16.77;13.30;;;7.70;82.00;;;;;;4834617;29;20034;-84
2024/02/28 10:48:27;;;;;;;15.55;12.70;;;7.80;82.00;;;;;;4824444;29;20045;-79
2024/02/28 10:50:56;;;;;;;16.58;13.05;;;7.80;81.90;;;;;;4836704;29;20088;-90
2024/02/28 10:53:35;;;;;;;16.25;13.25;;;7.90;82.00;;;;;;4837412;29;20399;-80
2024/02/28 10:56:04;;;;;;;17.17;13.60;;;7.90;82.00;;;;;;4840049;29;20022;-81
2024/02/28 10:58:34;;;;;;;16.58;12.93;;;7.90;81.90;;;;;;4829153;29;20036;-81
2024/02/28 11:01:01;;;;;;;16.58;13.40;;;7.90;81.90;;;;;;4834112;29;20060;-86
2024/02/28 11:03:27;;;;;;;16.77;13.32;;;7.90;81.90;;;;;;4828156;29;20132;-79
2024/02/28 11:05:52;;;;;;;16.60;13.43;;;8.00;81.90;;;;;;4834269;29;20117;-86
2024/02/28 11:08:23;;;;;;;18.75;14.55;;;8.00;81.90;;;;;;4836242;29;20038;-86
2024/02/28 11:10:56;;;;;;;17.50;14.05;;;8.00;81.90;;;;;;4841393;29;20050;-94
2024/02/28 11:13:23;;;;;;;16.67;13.57;;;8.10;81.90;;;;;;4829264;29;20053;-80
2024/02/28 11:15:51;;;;;;;18.65;14.57;;;8.10;81.90;;;;;;4843504;29;20082;-95
2024/02/28 11:18:17;;;;;;;17.15;13.93;;;8.10;81.90;;;;;;4860013;29;20025;-95
2024/02/28 11:20:46;;;;;;;17.10;13.35;;;8.10;81.80;;;;;;4850118;29;20057;-79
2024/02/28 11:23:14;;;;;;;16.13;13.30;;;8.20;81.90;;;;;;4822752;29;20026;-80
2024/02/28 11:25:42;;;;;;;18.13;13.93;;;8.20;81.80;;;;;;4827730;29;20033;-82
2024/02/28 11:28:12;;;;;;;18.55;14.32;;;8.20;81.80;;;;;;4839753;29;20045;-95
2024/02/28 11:30:38;;;;;;;18.80;14.75;;;8.30;81.80;;;;;;4829309;29;20032;-94
2024/02/28 11:33:04;;;;;;;18.83;15.25;;;8.30;81.80;;;;;;4830410;29;20037;-95
2024/02/28 11:35:31;;;;;;;17.40;14.10;;;8.30;81.80;;;;;;4833346;29;20144;-81
2024/02/28 11:37:57;;;;;;;18.00;14.02;;;8.30;81.80;;;;;;4835442;29;20034;-87
2024/02/28 11:40:26;;;;;;;17.55;13.95;;;8.40;81.80;;;;;;4838182;29;20041;-87
2024/02/28 11:42:54;;;;;;;16.83;13.55;;;8.50;81.80;;;;;;4831411;29;20037;-88
2024/02/28 11:45:22;;;;;;;17.50;13.40;;;8.40;81.70;;;;;;4842194;29;20026;-80
2024/02/28 11:47:48;;;;;;;17.90;14.18;;;8.50;81.70;;;;;;4845789;29;20074;-81
2024/02/28 11:50:18;;;;;;;16.80;13.77;;;8.50;81.60;;;;;;4833170;29;20021;-87
2024/02/28 11:52:45;;;;;;;18.67;14.85;;;8.50;81.60;;;;;;4826770;29;20052;-95
2024/02/28 11:55:11;;;;;;;18.30;14.48;;;8.50;81.60;;;;;;4831771;29;20407;-80
2024/02/28 11:57:40;;;;;;;19.15;15.68;;;8.60;81.60;;;;;;4828389;29;20021;-94
2024/02/28 12:00:14;;;;;;;19.40;15.98;;;8.60;81.60;;;;;;4845991;29;20086;-87
2024/02/28 12:02:40;;;;;;;17.58;14.65;;;8.60;81.50;;;;;;4821502;29;20025;-91
2024/02/28 12:05:06;;;;;;;18.55;14.38;;;8.70;81.60;;;;;;4822554;29;20034;-79
2024/02/28 12:07:32;;;;;;;19.95;15.88;;;8.70;81.50;;;;;;4826995;29;20025;-81
2024/02/28 12:09:59;;;;;;;18.70;15.80;;;8.70;81.90;;;;;;4825262;29;20067;-80
2024/02/28 12:12:25;;;;;;;20.05;16.08;;;8.80;81.60;;;;;;4826934;29;20114;-93
2024/02/28 12:14:51;;;;;;;18.42;14.85;;;8.80;81.60;;;;;;4842078;29;20037;-81
2024/02/28 12:17:17;;;;;;;19.65;15.75;;;8.80;81.50;;;;;;4829467;29;20477;-84
2024/02/28 12:19:43;;;;;;;19.52;16.48;;;8.90;81.60;;;;;;4828893;29;20079;-83
2024/02/28 12:22:10;;;;;;;19.98;15.95;;;8.90;81.60;;;;;;4833439;29;20032;-82
2024/02/28 12:24:36;;;;;;;20.10;15.77;;;8.90;81.50;;;;;;4824001;29;20037;-82
2024/02/28 12:27:02;;;;;;;19.98;15.85;;;8.90;81.50;;;;;;4842442;29;20033;-84
2024/02/28 12:29:28;;;;;;;20.98;16.65;;;9.00;81.50;;;;;;4827730;29;20030;-81
2024/02/28 12:31:53;;;;;;;19.73;16.35;;;9.00;81.50;;;;;;4828825;29;20026;-81
2024/02/28 12:34:21;;;;;;;20.85;16.73;;;9.00;81.40;;;;;;4834544;29;20033;-86